Terminal Aerodrome Forecast
Issued by NWS Sterling, VA

Home | Current Version | Previous Version | Text Only | Print | Product List | Glossary On
Versions: 1 2 3 4 5 6 7 8 9 10 11 12 13 14 15 16 17 18 19 20 21 22 23
000
FTUS41 KLWX 061133
TAFIAD
TAF
KIAD 061133Z 0612/0718 VRB04KT 6SM -RAPL SCT008 OVC050
     FM061600 09006KT 5SM -RA BR BKN008 OVC050
     FM062100 VRB04KT 5SM -RA BR BKN003 OVC008
     FM070600 VRB04KT 5SM BR BKN008 OVC015
     FM070900 VRB04KT 5SM BR BKN025
     FM071400 32008G16KT P6SM SCT050=

USA.gov is the U.S. government's official web portal to all federal, state and local government web resources and services.